sensor_id;sensor_type;location;lat;lon;timestamp;temperature;humidity
9403;DHT22;4741;49.834;10.740;2024-03-08T00:02:05;-1.40;99.90
9403;DHT22;4741;49.834;10.740;2024-03-08T00:04:32;-1.30;99.90
9403;DHT22;4741;49.834;10.740;2024-03-08T00:06:58;-1.10;99.90
9403;DHT22;4741;49.834;10.740;2024-03-08T00:09:25;-1.20;99.90
9403;DHT22;4741;49.834;10.740;2024-03-08T00:11:53;-0.60;99.90
9403;DHT22;4741;49.834;10.740;2024-03-08T00:14:20;-1.30;99.90
9403;DHT22;4741;49.834;10.740;2024-03-08T00:16:48;-1.30;99.90
9403;DHT22;4741;49.834;10.740;2024-03-08T00:19:15;-1.10;99.90
9403;DHT22;4741;49.834;10.740;2024-03-08T00:21:41;-1.20;99.90
9403;DHT22;4741;49.834;10.740;2024-03-08T00:24:08;-0.90;99.90
9403;DHT22;4741;49.834;10.740;2024-03-08T00:26:35;-1.20;99.90
9403;DHT22;4741;49.834;10.740;2024-03-08T00:29:02;-1.30;99.90
9403;DHT22;4741;49.834;10.740;2024-03-08T00:31:30;-1.50;99.90
9403;DHT22;4741;49.834;10.740;2024-03-08T00:34:00;-1.60;99.90
9403;DHT22;4741;49.834;10.740;2024-03-08T00:36:26;-1.60;99.90
9403;DHT22;4741;49.834;10.740;2024-03-08T00:38:53;-1.80;99.90
9403;DHT22;4741;49.834;10.740;2024-03-08T00:41:20;-1.60;99.90
9403;DHT22;4741;49.834;10.740;2024-03-08T00:43:47;-1.20;99.90
9403;DHT22;4741;49.834;10.740;2024-03-08T00:46:14;-2.30;99.90
9403;DHT22;4741;49.834;10.740;2024-03-08T00:48:41;-2.00;99.90
9403;DHT22;4741;49.834;10.740;2024-03-08T00:51:10;-1.60;99.90
9403;DHT22;4741;49.834;10.740;2024-03-08T00:53:37;-1.70;99.90
9403;DHT22;4741;49.834;10.740;2024-03-08T00:56:03;-1.10;99.90
9403;DHT22;4741;49.834;10.740;2024-03-08T00:58:31;-2.10;99.90
9403;DHT22;4741;49.834;10.740;2024-03-08T01:00:57;-1.90;99.90
9403;DHT22;4741;49.834;10.740;2024-03-08T01:03:25;-2.10;99.90
9403;DHT22;4741;49.834;10.740;2024-03-08T01:05:53;-2.20;99.90
9403;DHT22;4741;49.834;10.740;2024-03-08T01:08:19;-2.10;99.90
9403;DHT22;4741;49.834;10.740;2024-03-08T01:10:46;-2.00;99.90
9403;DHT22;4741;49.834;10.740;2024-03-08T01:13:13;-1.40;99.90
9403;DHT22;4741;49.834;10.740;2024-03-08T01:15:39;-2.20;99.90
9403;DHT22;4741;49.834;10.740;2024-03-08T01:18:08;-2.20;99.90
9403;DHT22;4741;49.834;10.740;2024-03-08T01:20:34;-2.00;99.90
9403;DHT22;4741;49.834;10.740;2024-03-08T01:23:01;-1.80;99.90
9403;DHT22;4741;49.834;10.740;2024-03-08T01:25:28;-2.40;99.90
9403;DHT22;4741;49.834;10.740;2024-03-08T01:27:55;-2.30;99.90
9403;DHT22;4741;49.834;10.740;2024-03-08T01:30:21;-2.20;99.90
9403;DHT22;4741;49.834;10.740;2024-03-08T01:32:48;-2.10;99.90
9403;DHT22;4741;49.834;10.740;2024-03-08T01:35:15;-2.10;99.90
9403;DHT22;4741;49.834;10.740;2024-03-08T01:37:42;-1.90;99.90
9403;DHT22;4741;49.834;10.740;2024-03-08T01:40:08;-2.50;99.90
9403;DHT22;4741;49.834;10.740;2024-03-08T01:42:35;-2.40;99.90
9403;DHT22;4741;49.834;10.740;2024-03-08T01:45:05;-2.40;99.90
9403;DHT22;4741;49.834;10.740;2024-03-08T01:47:32;-2.30;99.90
9403;DHT22;4741;49.834;10.740;2024-03-08T01:49:59;-2.20;99.90
9403;DHT22;4741;49.834;10.740;2024-03-08T01:52:29;-2.20;99.90
9403;DHT22;4741;49.834;10.740;2024-03-08T01:55:02;-2.10;99.90
9403;DHT22;4741;49.834;10.740;2024-03-08T01:57:29;-2.00;99.90
9403;DHT22;4741;49.834;10.740;2024-03-08T01:59:57;-1.90;99.90
9403;DHT22;4741;49.834;10.740;2024-03-08T02:02:24;-2.10;99.90
9403;DHT22;4741;49.834;10.740;2024-03-08T02:04:51;-2.30;99.90
9403;DHT22;4741;49.834;10.740;2024-03-08T02:07:19;-1.70;99.90
9403;DHT22;4741;49.834;10.740;2024-03-08T02:09:46;-2.60;99.90
9403;DHT22;4741;49.834;10.740;2024-03-08T02:12:13;-2.70;99.90
9403;DHT22;4741;49.834;10.740;2024-03-08T02:14:40;-3.00;99.90
9403;DHT22;4741;49.834;10.740;2024-03-08T02:17:07;-3.10;99.90
9403;DHT22;4741;49.834;10.740;2024-03-08T02:19:34;-3.30;99.90
9403;DHT22;4741;49.834;10.740;2024-03-08T02:22:03;-1.90;99.90
9403;DHT22;4741;49.834;10.740;2024-03-08T02:24:31;-2.80;99.90
9403;DHT22;4741;49.834;10.740;2024-03-08T02:26:58;-2.30;99.90
9403;DHT22;4741;49.834;10.740;2024-03-08T02:29:25;-2.70;99.90
9403;DHT22;4741;49.834;10.740;2024-03-08T02:31:52;-2.60;99.90
9403;DHT22;4741;49.834;10.740;2024-03-08T02:34:19;-2.10;99.90
9403;DHT22;4741;49.834;10.740;2024-03-08T02:36:46;-2.60;99.90
9403;DHT22;4741;49.834;10.740;2024-03-08T02:39:13;-2.60;99.90
9403;DHT22;4741;49.834;10.740;2024-03-08T02:41:40;-1.50;99.90
9403;DHT22;4741;49.834;10.740;2024-03-08T02:44:07;-1.70;99.90
9403;DHT22;4741;49.834;10.740;2024-03-08T02:46:33;-3.00;99.90
9403;DHT22;4741;49.834;10.740;2024-03-08T02:49:02;-2.60;99.90
9403;DHT22;4741;49.834;10.740;2024-03-08T02:51:29;-3.00;99.90
9403;DHT22;4741;49.834;10.740;2024-03-08T02:53:55;-2.30;99.90
9403;DHT22;4741;49.834;10.740;2024-03-08T02:56:22;-2.60;99.90
9403;DHT22;4741;49.834;10.740;2024-03-08T02:58:49;-2.10;99.90
9403;DHT22;4741;49.834;10.740;2024-03-08T03:01:16;-2.30;99.90
9403;DHT22;4741;49.834;10.740;2024-03-08T03:03:42;-2.90;99.90
9403;DHT22;4741;49.834;10.740;2024-03-08T03:06:09;-2.10;99.90
9403;DHT22;4741;49.834;10.740;2024-03-08T03:08:36;-2.30;99.90
9403;DHT22;4741;49.834;10.740;2024-03-08T03:11:03;-2.30;99.90
9403;DHT22;4741;49.834;10.740;2024-03-08T03:13:30;-1.90;99.90
9403;DHT22;4741;49.834;10.740;2024-03-08T03:15:57;-2.30;99.90
9403;DHT22;4741;49.834;10.740;2024-03-08T03:18:24;-2.20;99.90
9403;DHT22;4741;49.834;10.740;2024-03-08T03:20:52;-1.90;99.90
9403;DHT22;4741;49.834;10.740;2024-03-08T03:23:19;-3.00;99.90
9403;DHT22;4741;49.834;10.740;2024-03-08T03:25:47;-2.30;99.90
9403;DHT22;4741;49.834;10.740;2024-03-08T03:28:14;-2.50;99.90
9403;DHT22;4741;49.834;10.740;2024-03-08T03:30:44;-2.70;99.90
9403;DHT22;4741;49.834;10.740;2024-03-08T03:33:13;-2.00;99.90
9403;DHT22;4741;49.834;10.740;2024-03-08T03:35:42;-2.20;99.90
9403;DHT22;4741;49.834;10.740;2024-03-08T03:38:09;-2.20;99.90
9403;DHT22;4741;49.834;10.740;2024-03-08T03:40:37;-3.20;99.90
9403;DHT22;4741;49.834;10.740;2024-03-08T03:43:05;-2.40;99.90
9403;DHT22;4741;49.834;10.740;2024-03-08T03:45:31;-2.40;99.90
9403;DHT22;4741;49.834;10.740;2024-03-08T03:48:04;-3.10;99.90
9403;DHT22;4741;49.834;10.740;2024-03-08T03:50:31;-3.00;99.90
9403;DHT22;4741;49.834;10.740;2024-03-08T03:53:02;-2.60;99.90
9403;DHT22;4741;49.834;10.740;2024-03-08T03:55:29;-3.00;99.90
9403;DHT22;4741;49.834;10.740;2024-03-08T03:57:56;-2.60;99.90
9403;DHT22;4741;49.834;10.740;2024-03-08T04:00:25;-2.90;99.90
9403;DHT22;4741;49.834;10.740;2024-03-08T04:02:53;-2.80;99.90
9403;DHT22;4741;49.834;10.740;2024-03-08T04:05:21;-2.00;99.90
9403;DHT22;4741;49.834;10.740;2024-03-08T04:07:48;-2.20;99.90
9403;DHT22;4741;49.834;10.740;2024-03-08T04:10:15;-3.00;99.90
9403;DHT22;4741;49.834;10.740;2024-03-08T04:12:41;-3.00;99.90
9403;DHT22;4741;49.834;10.740;2024-03-08T04:15:08;-3.30;99.90
9403;DHT22;4741;49.834;10.740;2024-03-08T04:17:37;-3.30;99.90
9403;DHT22;4741;49.834;10.740;2024-03-08T04:20:05;-3.40;99.90
9403;DHT22;4741;49.834;10.740;2024-03-08T04:22:36;-3.50;99.90
9403;DHT22;4741;49.834;10.740;2024-03-08T04:25:03;-3.30;99.90
9403;DHT22;4741;49.834;10.740;2024-03-08T04:27:30;-3.40;99.90
9403;DHT22;4741;49.834;10.740;2024-03-08T04:29:56;-3.30;99.90
9403;DHT22;4741;49.834;10.740;2024-03-08T04:32:23;-3.20;99.90
9403;DHT22;4741;49.834;10.740;2024-03-08T04:34:50;-3.10;99.90
9403;DHT22;4741;49.834;10.740;2024-03-08T04:37:17;-3.30;99.90
9403;DHT22;4741;49.834;10.740;2024-03-08T04:39:48;-3.50;99.90
9403;DHT22;4741;49.834;10.740;2024-03-08T04:42:15;-3.60;99.90
9403;DHT22;4741;49.834;10.740;2024-03-08T04:44:42;-3.40;99.90
9403;DHT22;4741;49.834;10.740;2024-03-08T04:47:09;-3.00;99.90
9403;DHT22;4741;49.834;10.740;2024-03-08T04:49:37;-3.10;99.90
9403;DHT22;4741;49.834;10.740;2024-03-08T04:52:04;-3.30;99.90
9403;DHT22;4741;49.834;10.740;2024-03-08T04:54:31;-3.40;99.90
9403;DHT22;4741;49.834;10.740;2024-03-08T04:56:57;-3.50;99.90
9403;DHT22;4741;49.834;10.740;2024-03-08T04:59:27;-2.90;99.90
9403;DHT22;4741;49.834;10.740;2024-03-08T05:01:54;-3.40;99.90
9403;DHT22;4741;49.834;10.740;2024-03-08T05:04:21;-3.40;99.90
9403;DHT22;4741;49.834;10.740;2024-03-08T05:06:47;-2.60;99.90
9403;DHT22;4741;49.834;10.740;2024-03-08T05:09:14;-2.60;99.90
9403;DHT22;4741;49.834;10.740;2024-03-08T05:11:43;-2.80;99.90
9403;DHT22;4741;49.834;10.740;2024-03-08T05:14:10;-2.50;99.90
9403;DHT22;4741;49.834;10.740;2024-03-08T05:16:37;-2.40;99.90
9403;DHT22;4741;49.834;10.740;2024-03-08T05:19:04;-1.80;99.90
9403;DHT22;4741;49.834;10.740;2024-03-08T05:21:31;-2.10;99.90
9403;DHT22;4741;49.834;10.740;2024-03-08T05:23:57;-2.10;99.90
9403;DHT22;4741;49.834;10.740;2024-03-08T05:26:24;-2.30;99.90
9403;DHT22;4741;49.834;10.740;2024-03-08T05:28:51;-2.00;99.90
9403;DHT22;4741;49.834;10.740;2024-03-08T05:31:21;-2.30;99.90
9403;DHT22;4741;49.834;10.740;2024-03-08T05:33:50;-1.80;99.90
9403;DHT22;4741;49.834;10.740;2024-03-08T05:36:17;-1.70;99.90
9403;DHT22;4741;49.834;10.740;2024-03-08T05:38:44;-1.70;99.90
9403;DHT22;4741;49.834;10.740;2024-03-08T05:41:11;-1.60;99.90
9403;DHT22;4741;49.834;10.740;2024-03-08T05:43:41;-1.30;99.90
9403;DHT22;4741;49.834;10.740;2024-03-08T05:46:08;-1.30;99.90
9403;DHT22;4741;49.834;10.740;2024-03-08T05:48:35;-1.10;99.90
9403;DHT22;4741;49.834;10.740;2024-03-08T05:51:02;-1.20;99.90
9403;DHT22;4741;49.834;10.740;2024-03-08T05:53:29;-0.40;99.90
9403;DHT22;4741;49.834;10.740;2024-03-08T05:55:58;-1.10;99.90
9403;DHT22;4741;49.834;10.740;2024-03-08T05:58:25;-1.10;99.90
9403;DHT22;4741;49.834;10.740;2024-03-08T06:00:52;-1.20;99.90
9403;DHT22;4741;49.834;10.740;2024-03-08T06:03:19;-1.20;99.90
9403;DHT22;4741;49.834;10.740;2024-03-08T06:05:51;-1.20;99.90
9403;DHT22;4741;49.834;10.740;2024-03-08T06:08:25;-1.20;99.90
9403;DHT22;4741;49.834;10.740;2024-03-08T06:11:08;-1.20;99.90
9403;DHT22;4741;49.834;10.740;2024-03-08T06:13:43;-1.10;99.90
9403;DHT22;4741;49.834;10.740;2024-03-08T06:16:11;-1.00;99.90
9403;DHT22;4741;49.834;10.740;2024-03-08T06:18:38;-0.90;99.90
9403;DHT22;4741;49.834;10.740;2024-03-08T06:21:06;-0.70;99.90
9403;DHT22;4741;49.834;10.740;2024-03-08T06:23:33;-0.40;99.90
9403;DHT22;4741;49.834;10.740;2024-03-08T06:26:00;-0.40;99.90
9403;DHT22;4741;49.834;10.740;2024-03-08T06:28:27;0.00;99.90
9403;DHT22;4741;49.834;10.740;2024-03-08T06:30:54;-0.30;99.90
9403;DHT22;4741;49.834;10.740;2024-03-08T06:33:20;-0.40;99.90
9403;DHT22;4741;49.834;10.740;2024-03-08T06:35:47;-0.30;99.90
9403;DHT22;4741;49.834;10.740;2024-03-08T06:38:14;-0.20;99.90
9403;DHT22;4741;49.834;10.740;2024-03-08T06:40:42;-0.20;99.90
9403;DHT22;4741;49.834;10.740;2024-03-08T06:43:09;-0.10;99.90
9403;DHT22;4741;49.834;10.740;2024-03-08T06:48:05;0.20;99.90
9403;DHT22;4741;49.834;10.740;2024-03-08T06:50:36;0.30;99.90
9403;DHT22;4741;49.834;10.740;2024-03-08T06:53:03;0.30;99.90
9403;DHT22;4741;49.834;10.740;2024-03-08T06:55:30;0.40;99.90
9403;DHT22;4741;49.834;10.740;2024-03-08T06:57:56;0.60;99.90
9403;DHT22;4741;49.834;10.740;2024-03-08T07:00:24;0.60;99.90
9403;DHT22;4741;49.834;10.740;2024-03-08T07:02:53;0.90;99.90
9403;DHT22;4741;49.834;10.740;2024-03-08T07:05:20;0.90;99.90
9403;DHT22;4741;49.834;10.740;2024-03-08T07:07:47;1.20;99.90
9403;DHT22;4741;49.834;10.740;2024-03-08T07:10:17;1.10;99.90
9403;DHT22;4741;49.834;10.740;2024-03-08T07:12:45;1.40;99.90
9403;DHT22;4741;49.834;10.740;2024-03-08T07:15:13;1.40;99.90
9403;DHT22;4741;49.834;10.740;2024-03-08T07:17:41;2.00;99.90
9403;DHT22;4741;49.834;10.740;2024-03-08T07:20:11;1.70;99.90
9403;DHT22;4741;49.834;10.740;2024-03-08T07:22:38;1.80;99.90
9403;DHT22;4741;49.834;10.740;2024-03-08T07:25:05;1.90;99.90
9403;DHT22;4741;49.834;10.740;2024-03-08T07:30:16;2.20;99.90
9403;DHT22;4741;49.834;10.740;2024-03-08T07:33:03;2.90;99.90
9403;DHT22;4741;49.834;10.740;2024-03-08T07:37:57;2.60;99.90
9403;DHT22;4741;49.834;10.740;2024-03-08T07:40:26;2.70;99.90
9403;DHT22;4741;49.834;10.740;2024-03-08T07:42:53;2.70;99.90
9403;DHT22;4741;49.834;10.740;2024-03-08T07:45:20;2.90;99.90
9403;DHT22;4741;49.834;10.740;2024-03-08T07:47:48;3.10;99.90
9403;DHT22;4741;49.834;10.740;2024-03-08T07:50:16;3.10;99.90
9403;DHT22;4741;49.834;10.740;2024-03-08T07:52:43;3.40;99.90
9403;DHT22;4741;49.834;10.740;2024-03-08T07:55:10;3.40;99.90
9403;DHT22;4741;49.834;10.740;2024-03-08T07:57:39;3.50;99.90
9403;DHT22;4741;49.834;10.740;2024-03-08T08:00:06;3.70;99.90
9403;DHT22;4741;49.834;10.740;2024-03-08T08:02:37;3.70;99.90
9403;DHT22;4741;49.834;10.740;2024-03-08T08:05:06;3.80;99.90
9403;DHT22;4741;49.834;10.740;2024-03-08T08:07:33;4.10;99.90
9403;DHT22;4741;49.834;10.740;2024-03-08T08:12:27;4.30;99.90
9403;DHT22;4741;49.834;10.740;2024-03-08T08:17:23;4.40;99.90
9403;DHT22;4741;49.834;10.740;2024-03-08T08:19:49;4.40;99.90
9403;DHT22;4741;49.834;10.740;2024-03-08T08:22:16;4.70;99.90
9403;DHT22;4741;49.834;10.740;2024-03-08T08:24:44;4.60;99.90
9403;DHT22;4741;49.834;10.740;2024-03-08T08:27:12;5.50;99.90
9403;DHT22;4741;49.834;10.740;2024-03-08T08:29:38;4.60;99.90
9403;DHT22;4741;49.834;10.740;2024-03-08T08:32:06;4.70;99.90
9403;DHT22;4741;49.834;10.740;2024-03-08T08:34:33;5.10;99.90
9403;DHT22;4741;49.834;10.740;2024-03-08T08:36:59;5.10;99.90
9403;DHT22;4741;49.834;10.740;2024-03-08T08:39:27;5.10;99.90
9403;DHT22;4741;49.834;10.740;2024-03-08T08:41:54;5.20;99.90
9403;DHT22;4741;49.834;10.740;2024-03-08T08:44:22;5.30;99.90
9403;DHT22;4741;49.834;10.740;2024-03-08T08:46:48;6.20;99.90
9403;DHT22;4741;49.834;10.740;2024-03-08T08:51:50;5.70;99.90
9403;DHT22;4741;49.834;10.740;2024-03-08T08:54:19;5.80;99.90
9403;DHT22;4741;49.834;10.740;2024-03-08T08:56:47;5.90;99.90
9403;DHT22;4741;49.834;10.740;2024-03-08T08:59:14;5.90;99.90
9403;DHT22;4741;49.834;10.740;2024-03-08T09:01:40;6.00;99.90
9403;DHT22;4741;49.834;10.740;2024-03-08T09:04:08;6.00;99.90
9403;DHT22;4741;49.834;10.740;2024-03-08T09:06:35;6.00;99.90
9403;DHT22;4741;49.834;10.740;2024-03-08T09:09:02;6.60;99.90
9403;DHT22;4741;49.834;10.740;2024-03-08T09:11:32;6.90;99.90
9403;DHT22;4741;49.834;10.740;2024-03-08T09:13:59;6.40;99.90
9403;DHT22;4741;49.834;10.740;2024-03-08T09:16:26;6.60;99.90
9403;DHT22;4741;49.834;10.740;2024-03-08T09:18:53;6.40;99.90
9403;DHT22;4741;49.834;10.740;2024-03-08T09:21:19;5.90;99.90
9403;DHT22;4741;49.834;10.740;2024-03-08T09:23:49;6.70;99.90
9403;DHT22;4741;49.834;10.740;2024-03-08T09:26:16;6.90;99.90
9403;DHT22;4741;49.834;10.740;2024-03-08T09:28:54;6.90;99.90
9403;DHT22;4741;49.834;10.740;2024-03-08T09:31:24;6.80;99.90
9403;DHT22;4741;49.834;10.740;2024-03-08T09:33:50;7.00;99.90
9403;DHT22;4741;49.834;10.740;2024-03-08T09:36:18;7.10;99.90
9403;DHT22;4741;49.834;10.740;2024-03-08T09:38:45;7.10;99.90
9403;DHT22;4741;49.834;10.740;2024-03-08T09:41:11;7.10;99.90
9403;DHT22;4741;49.834;10.740;2024-03-08T09:43:39;7.10;99.90
9403;DHT22;4741;49.834;10.740;2024-03-08T09:46:05;7.20;99.90
9403;DHT22;4741;49.834;10.740;2024-03-08T09:48:33;7.40;99.90
9403;DHT22;4741;49.834;10.740;2024-03-08T09:51:01;7.50;99.90
9403;DHT22;4741;49.834;10.740;2024-03-08T09:53:28;7.20;99.90
9403;DHT22;4741;49.834;10.740;2024-03-08T09:55:56;7.50;99.90
9403;DHT22;4741;49.834;10.740;2024-03-08T09:58:23;7.70;99.90
9403;DHT22;4741;49.834;10.740;2024-03-08T10:00:59;8.00;99.90
9403;DHT22;4741;49.834;10.740;2024-03-08T10:03:31;8.10;99.90
9403;DHT22;4741;49.834;10.740;2024-03-08T10:06:01;8.20;99.90
9403;DHT22;4741;49.834;10.740;2024-03-08T10:08:28;7.20;99.90
9403;DHT22;4741;49.834;10.740;2024-03-08T10:10:58;8.00;99.90
9403;DHT22;4741;49.834;10.740;2024-03-08T10:13:25;8.40;99.90
9403;DHT22;4741;49.834;10.740;2024-03-08T10:15:53;8.30;99.90
9403;DHT22;4741;49.834;10.740;2024-03-08T10:18:20;7.80;99.90
9403;DHT22;4741;49.834;10.740;2024-03-08T10:21:09;8.50;99.90
9403;DHT22;4741;49.834;10.740;2024-03-08T10:23:41;8.80;99.90
9403;DHT22;4741;49.834;10.740;2024-03-08T10:26:10;8.50;99.90
9403;DHT22;4741;49.834;10.740;2024-03-08T10:28:37;8.50;99.90
9403;DHT22;4741;49.834;10.740;2024-03-08T10:31:04;9.10;99.90
9403;DHT22;4741;49.834;10.740;2024-03-08T10:36:00;9.30;99.90
9403;DHT22;4741;49.834;10.740;2024-03-08T10:38:27;8.90;99.90
9403;DHT22;4741;49.834;10.740;2024-03-08T10:40:55;8.80;99.90
9403;DHT22;4741;49.834;10.740;2024-03-08T10:43:25;8.20;99.90
9403;DHT22;4741;49.834;10.740;2024-03-08T10:46:04;9.80;99.90
9403;DHT22;4741;49.834;10.740;2024-03-08T10:48:34;10.40;99.90
9403;DHT22;4741;49.834;10.740;2024-03-08T10:51:05;10.50;99.90
9403;DHT22;4741;49.834;10.740;2024-03-08T10:53:34;10.10;99.90
9403;DHT22;4741;49.834;10.740;2024-03-08T10:56:03;9.90;99.90
9403;DHT22;4741;49.834;10.740;2024-03-08T10:58:30;10.60;99.90
9403;DHT22;4741;49.834;10.740;2024-03-08T11:00:58;10.40;99.90
9403;DHT22;4741;49.834;10.740;2024-03-08T11:06:07;11.50;99.90
9403;DHT22;4741;49.834;10.740;2024-03-08T11:08:36;12.70;99.90
9403;DHT22;4741;49.834;10.740;2024-03-08T11:11:03;11.10;99.90
9403;DHT22;4741;49.834;10.740;2024-03-08T11:13:39;11.70;99.90
9403;DHT22;4741;49.834;10.740;2024-03-08T11:16:10;12.10;99.90
9403;DHT22;4741;49.834;10.740;2024-03-08T11:18:37;11.70;99.90
9403;DHT22;4741;49.834;10.740;2024-03-08T11:26:23;12.90;99.90
9403;DHT22;4741;49.834;10.740;2024-03-08T11:28:50;13.30;99.90
9403;DHT22;4741;49.834;10.740;2024-03-08T11:31:23;12.80;99.90
9403;DHT22;4741;49.834;10.740;2024-03-08T11:33:51;13.20;99.90
9403;DHT22;4741;49.834;10.740;2024-03-08T11:36:20;13.70;99.90
9403;DHT22;4741;49.834;10.740;2024-03-08T11:38:48;13.60;99.90
9403;DHT22;4741;49.834;10.740;2024-03-08T11:41:19;15.30;99.90
9403;DHT22;4741;49.834;10.740;2024-03-08T11:43:46;14.60;95.10
9403;DHT22;4741;49.834;10.740;2024-03-08T11:46:14;13.30;93.80
9403;DHT22;4741;49.834;10.740;2024-03-08T11:48:42;12.90;94.20
9403;DHT22;4741;49.834;10.740;2024-03-08T11:51:12;14.20;94.50
9403;DHT22;4741;49.834;10.740;2024-03-08T11:53:40;14.20;93.50
9403;DHT22;4741;49.834;10.740;2024-03-08T11:56:10;14.60;92.30
9403;DHT22;4741;49.834;10.740;2024-03-08T11:58:38;17.00;93.10
9403;DHT22;4741;49.834;10.740;2024-03-08T12:01:05;14.90;93.00
9403;DHT22;4741;49.834;10.740;2024-03-08T12:03:33;14.20;93.00
9403;DHT22;4741;49.834;10.740;2024-03-08T12:06:05;15.00;92.30
9403;DHT22;4741;49.834;10.740;2024-03-08T12:08:32;14.80;93.10
9403;DHT22;4741;49.834;10.740;2024-03-08T12:10:58;16.40;94.00
9403;DHT22;4741;49.834;10.740;2024-03-08T12:13:29;16.00;93.00
9403;DHT22;4741;49.834;10.740;2024-03-08T12:16:00;14.70;91.60
9403;DHT22;4741;49.834;10.740;2024-03-08T12:18:27;16.00;91.00
9403;DHT22;4741;49.834;10.740;2024-03-08T12:21:09;15.70;90.10
9403;DHT22;4741;49.834;10.740;2024-03-08T12:23:44;15.10;90.90
9403;DHT22;4741;49.834;10.740;2024-03-08T12:26:14;16.60;91.90
9403;DHT22;4741;49.834;10.740;2024-03-08T12:28:42;16.60;90.30
9403;DHT22;4741;49.834;10.740;2024-03-08T12:31:18;15.50;89.60
9403;DHT22;4741;49.834;10.740;2024-03-08T12:36:15;17.90;90.00
9403;DHT22;4741;49.834;10.740;2024-03-08T12:38:45;16.80;87.80
9403;DHT22;4741;49.834;10.740;2024-03-08T12:41:15;18.00;86.60
9403;DHT22;4741;49.834;10.740;2024-03-08T12:43:43;16.60;85.30
9403;DHT22;4741;49.834;10.740;2024-03-08T12:46:20;17.60;87.50
9403;DHT22;4741;49.834;10.740;2024-03-08T12:48:47;18.50;85.80
9403;DHT22;4741;49.834;10.740;2024-03-08T12:51:14;19.50;84.60
9403;DHT22;4741;49.834;10.740;2024-03-08T12:53:42;19.50;82.70
9403;DHT22;4741;49.834;10.740;2024-03-08T12:56:12;19.40;82.20
9403;DHT22;4741;49.834;10.740;2024-03-08T12:58:39;18.40;83.00
9403;DHT22;4741;49.834;10.740;2024-03-08T13:01:07;18.70;82.10
9403;DHT22;4741;49.834;10.740;2024-03-08T13:03:34;18.90;82.00
9403;DHT22;4741;49.834;10.740;2024-03-08T13:06:03;19.20;81.30
9403;DHT22;4741;49.834;10.740;2024-03-08T13:08:29;19.80;78.70
9403;DHT22;4741;49.834;10.740;2024-03-08T13:10:57;18.80;79.00
9403;DHT22;4741;49.834;10.740;2024-03-08T13:13:25;20.80;80.00
9403;DHT22;4741;49.834;10.740;2024-03-08T13:15:52;21.10;78.30
9403;DHT22;4741;49.834;10.740;2024-03-08T13:18:19;20.60;78.00
9403;DHT22;4741;49.834;10.740;2024-03-08T13:20:46;21.80;77.70
9403;DHT22;4741;49.834;10.740;2024-03-08T13:23:16;22.10;78.80
9403;DHT22;4741;49.834;10.740;2024-03-08T13:25:44;21.20;74.80
9403;DHT22;4741;49.834;10.740;2024-03-08T13:28:12;21.20;73.50
9403;DHT22;4741;49.834;10.740;2024-03-08T13:30:39;20.50;73.80
9403;DHT22;4741;49.834;10.740;2024-03-08T13:33:06;22.00;75.70
9403;DHT22;4741;49.834;10.740;2024-03-08T13:35:34;20.30;71.80
9403;DHT22;4741;49.834;10.740;2024-03-08T13:38:01;21.00;76.00
9403;DHT22;4741;49.834;10.740;2024-03-08T13:40:32;20.40;74.90
9403;DHT22;4741;49.834;10.740;2024-03-08T13:42:58;20.60;72.90
9403;DHT22;4741;49.834;10.740;2024-03-08T13:45:27;21.40;71.70
9403;DHT22;4741;49.834;10.740;2024-03-08T13:47:54;21.20;71.80
9403;DHT22;4741;49.834;10.740;2024-03-08T13:50:21;21.40;72.20
9403;DHT22;4741;49.834;10.740;2024-03-08T13:52:49;20.70;73.00
9403;DHT22;4741;49.834;10.740;2024-03-08T13:55:20;20.90;70.80
9403;DHT22;4741;49.834;10.740;2024-03-08T13:57:48;21.10;70.90
9403;DHT22;4741;49.834;10.740;2024-03-08T14:00:15;22.70;70.70
9403;DHT22;4741;49.834;10.740;2024-03-08T14:06:13;21.40;68.90
9403;DHT22;4741;49.834;10.740;2024-03-08T14:08:47;20.80;67.50
9403;DHT22;4741;49.834;10.740;2024-03-08T14:11:14;21.90;70.00
9403;DHT22;4741;49.834;10.740;2024-03-08T14:13:44;21.60;67.70
9403;DHT22;4741;49.834;10.740;2024-03-08T14:16:14;20.70;66.90
9403;DHT22;4741;49.834;10.740;2024-03-08T14:18:42;21.80;68.70
9403;DHT22;4741;49.834;10.740;2024-03-08T14:21:09;21.50;66.70
9403;DHT22;4741;49.834;10.740;2024-03-08T14:23:37;21.10;66.80
9403;DHT22;4741;49.834;10.740;2024-03-08T14:26:04;22.10;67.30
9403;DHT22;4741;49.834;10.740;2024-03-08T14:28:33;22.40;67.90
9403;DHT22;4741;49.834;10.740;2024-03-08T14:31:01;21.50;66.60
9403;DHT22;4741;49.834;10.740;2024-03-08T14:33:33;21.20;66.40
9403;DHT22;4741;49.834;10.740;2024-03-08T14:35:59;21.40;67.00
9403;DHT22;4741;49.834;10.740;2024-03-08T14:38:27;21.50;67.70
9403;DHT22;4741;49.834;10.740;2024-03-08T14:40:54;21.60;65.10
9403;DHT22;4741;49.834;10.740;2024-03-08T14:43:22;21.40;64.40
9403;DHT22;4741;49.834;10.740;2024-03-08T14:45:50;21.50;66.20
9403;DHT22;4741;49.834;10.740;2024-03-08T14:48:17;21.30;66.10
9403;DHT22;4741;49.834;10.740;2024-03-08T14:50:44;21.30;66.30
9403;DHT22;4741;49.834;10.740;2024-03-08T14:53:14;21.40;65.70
9403;DHT22;4741;49.834;10.740;2024-03-08T14:55:42;20.60;66.40
9403;DHT22;4741;49.834;10.740;2024-03-08T14:58:10;20.70;65.50
9403;DHT22;4741;49.834;10.740;2024-03-08T15:00:37;20.90;65.70
9403;DHT22;4741;49.834;10.740;2024-03-08T15:03:06;20.60;65.80
9403;DHT22;4741;49.834;10.740;2024-03-08T15:05:33;20.80;65.90
9403;DHT22;4741;49.834;10.740;2024-03-08T15:08:05;19.70;66.60
9403;DHT22;4741;49.834;10.740;2024-03-08T15:10:37;19.90;66.20
9403;DHT22;4741;49.834;10.740;2024-03-08T15:13:07;19.80;68.50
9403;DHT22;4741;49.834;10.740;2024-03-08T15:15:41;20.50;67.20
9403;DHT22;4741;49.834;10.740;2024-03-08T15:18:09;20.10;68.10
9403;DHT22;4741;49.834;10.740;2024-03-08T15:20:37;20.30;68.60
9403;DHT22;4741;49.834;10.740;2024-03-08T15:23:04;19.50;68.20
9403;DHT22;4741;49.834;10.740;2024-03-08T15:25:32;19.90;68.10
9403;DHT22;4741;49.834;10.740;2024-03-08T15:28:01;20.40;67.90
9403;DHT22;4741;49.834;10.740;2024-03-08T15:30:31;19.90;67.10
9403;DHT22;4741;49.834;10.740;2024-03-08T15:33:00;20.00;68.20
9403;DHT22;4741;49.834;10.740;2024-03-08T15:35:29;19.70;68.00
9403;DHT22;4741;49.834;10.740;2024-03-08T15:37:58;19.90;69.40
9403;DHT22;4741;49.834;10.740;2024-03-08T15:40:26;19.60;69.30
9403;DHT22;4741;49.834;10.740;2024-03-08T15:42:57;19.60;69.20
9403;DHT22;4741;49.834;10.740;2024-03-08T15:45:24;19.00;69.30
9403;DHT22;4741;49.834;10.740;2024-03-08T15:57:50;18.60;68.40
9403;DHT22;4741;49.834;10.740;2024-03-08T16:00:22;17.10;72.60
9403;DHT22;4741;49.834;10.740;2024-03-08T16:03:18;17.20;72.70
9403;DHT22;4741;49.834;10.740;2024-03-08T16:05:45;17.30;74.10
9403;DHT22;4741;49.834;10.740;2024-03-08T16:08:12;16.90;74.40
9403;DHT22;4741;49.834;10.740;2024-03-08T16:10:42;17.10;76.00
9403;DHT22;4741;49.834;10.740;2024-03-08T16:13:13;15.80;75.40
9403;DHT22;4741;49.834;10.740;2024-03-08T16:15:45;15.70;77.30
9403;DHT22;4741;49.834;10.740;2024-03-08T16:18:17;14.90;77.40
9403;DHT22;4741;49.834;10.740;2024-03-08T16:20:49;13.70;81.60
9403;DHT22;4741;49.834;10.740;2024-03-08T16:23:16;12.20;83.90
9403;DHT22;4741;49.834;10.740;2024-03-08T16:25:43;11.60;85.90
9403;DHT22;4741;49.834;10.740;2024-03-08T16:28:10;11.20;86.90
9403;DHT22;4741;49.834;10.740;2024-03-08T16:30:37;11.80;86.20
9403;DHT22;4741;49.834;10.740;2024-03-08T16:33:04;12.50;85.20
9403;DHT22;4741;49.834;10.740;2024-03-08T16:35:31;12.60;84.40
9403;DHT22;4741;49.834;10.740;2024-03-08T16:37:58;12.60;84.50